sensor_id;sensor_type;location;lat;lon;timestamp;temperature;humidity
75799;DHT22;70422;44.692;37.768;2023-06-14T00:00:51;31.01;46.88
75799;DHT22;70422;44.692;37.768;2023-06-14T00:01:54;31.02;46.88
75799;DHT22;70422;44.692;37.768;2023-06-14T00:02:57;31.04;46.93
75799;DHT22;70422;44.692;37.768;2023-06-14T00:04:00;31.04;46.86
75799;DHT22;70422;44.692;37.768;2023-06-14T00:05:06;31.04;46.88
75799;DHT22;70422;44.692;37.768;2023-06-14T00:06:08;31.02;46.86
75799;DHT22;70422;44.692;37.768;2023-06-14T00:07:10;31.04;46.89
75799;DHT22;70422;44.692;37.768;2023-06-14T00:08:15;31.04;46.93
75799;DHT22;70422;44.692;37.768;2023-06-14T00:09:16;31.05;46.89
75799;DHT22;70422;44.692;37.768;2023-06-14T00:10:19;31.04;46.89
75799;DHT22;70422;44.692;37.768;2023-06-14T00:11:21;31.04;46.93
75799;DHT22;70422;44.692;37.768;2023-06-14T00:12:23;31.04;46.89
75799;DHT22;70422;44.692;37.768;2023-06-14T00:13:25;31.05;46.95
75799;DHT22;70422;44.692;37.768;2023-06-14T00:14:27;31.05;46.90
75799;DHT22;70422;44.692;37.768;2023-06-14T00:15:30;31.05;46.89
75799;DHT22;70422;44.692;37.768;2023-06-14T00:16:32;31.05;46.88
75799;DHT22;70422;44.692;37.768;2023-06-14T00:17:35;31.04;46.92
75799;DHT22;70422;44.692;37.768;2023-06-14T00:18:38;31.05;46.89
75799;DHT22;70422;44.692;37.768;2023-06-14T00:19:39;31.05;46.86
75799;DHT22;70422;44.692;37.768;2023-06-14T00:20:41;31.05;46.91
75799;DHT22;70422;44.692;37.768;2023-06-14T00:21:44;31.06;46.86
75799;DHT22;70422;44.692;37.768;2023-06-14T00:22:45;31.04;46.83
75799;DHT22;70422;44.692;37.768;2023-06-14T00:23:47;31.05;46.80
75799;DHT22;70422;44.692;37.768;2023-06-14T00:24:49;31.05;46.83
75799;DHT22;70422;44.692;37.768;2023-06-14T00:25:51;31.05;46.82
75799;DHT22;70422;44.692;37.768;2023-06-14T00:26:52;31.05;46.80
75799;DHT22;70422;44.692;37.768;2023-06-14T00:27:55;31.05;46.83
75799;DHT22;70422;44.692;37.768;2023-06-14T00:28:57;31.05;46.85
75799;DHT22;70422;44.692;37.768;2023-06-14T00:30:00;31.04;46.84
75799;DHT22;70422;44.692;37.768;2023-06-14T00:31:02;31.05;46.84
75799;DHT22;70422;44.692;37.768;2023-06-14T00:32:04;31.04;46.87
75799;DHT22;70422;44.692;37.768;2023-06-14T00:33:06;31.02;46.89
75799;DHT22;70422;44.692;37.768;2023-06-14T00:34:07;31.04;46.87
75799;DHT22;70422;44.692;37.768;2023-06-14T00:35:11;31.02;46.91
75799;DHT22;70422;44.692;37.768;2023-06-14T00:36:13;31.02;46.86
75799;DHT22;70422;44.692;37.768;2023-06-14T00:37:15;31.04;46.91
75799;DHT22;70422;44.692;37.768;2023-06-14T00:38:18;31.04;46.96
75799;DHT22;70422;44.692;37.768;2023-06-14T00:39:19;31.02;46.94
75799;DHT22;70422;44.692;37.768;2023-06-14T00:40:22;31.05;46.96
75799;DHT22;70422;44.692;37.768;2023-06-14T00:41:23;31.04;46.94
75799;DHT22;70422;44.692;37.768;2023-06-14T00:42:26;31.04;46.90
75799;DHT22;70422;44.692;37.768;2023-06-14T00:43:28;31.04;46.89
75799;DHT22;70422;44.692;37.768;2023-06-14T00:44:30;31.04;46.87
75799;DHT22;70422;44.692;37.768;2023-06-14T00:45:31;31.04;46.92
75799;DHT22;70422;44.692;37.768;2023-06-14T00:46:37;31.05;46.88
75799;DHT22;70422;44.692;37.768;2023-06-14T00:47:41;31.04;46.89
75799;DHT22;70422;44.692;37.768;2023-06-14T00:48:45;31.06;46.88
75799;DHT22;70422;44.692;37.768;2023-06-14T00:49:49;31.05;46.86
75799;DHT22;70422;44.692;37.768;2023-06-14T00:50:53;31.04;46.88
75799;DHT22;70422;44.692;37.768;2023-06-14T00:51:55;31.05;46.83
75799;DHT22;70422;44.692;37.768;2023-06-14T00:52:57;31.05;46.80
75799;DHT22;70422;44.692;37.768;2023-06-14T00:53:59;31.05;46.83
75799;DHT22;70422;44.692;37.768;2023-06-14T00:55:02;31.05;46.82
75799;DHT22;70422;44.692;37.768;2023-06-14T00:56:04;31.05;46.83
75799;DHT22;70422;44.692;37.768;2023-06-14T00:57:06;31.05;46.81
75799;DHT22;70422;44.692;37.768;2023-06-14T00:58:09;31.05;46.81
75799;DHT22;70422;44.692;37.768;2023-06-14T00:59:12;31.06;46.82
75799;DHT22;70422;44.692;37.768;2023-06-14T01:00:14;31.05;46.80
75799;DHT22;70422;44.692;37.768;2023-06-14T01:01:16;31.05;46.75
75799;DHT22;70422;44.692;37.768;2023-06-14T01:02:18;31.07;46.78
75799;DHT22;70422;44.692;37.768;2023-06-14T01:03:19;31.05;46.73
75799;DHT22;70422;44.692;37.768;2023-06-14T01:04:24;31.06;46.74
75799;DHT22;70422;44.692;37.768;2023-06-14T01:05:25;31.07;46.73
75799;DHT22;70422;44.692;37.768;2023-06-14T01:06:35;31.07;46.71
75799;DHT22;70422;44.692;37.768;2023-06-14T01:07:55;31.06;46.71
75799;DHT22;70422;44.692;37.768;2023-06-14T01:09:37;31.06;46.69
75799;DHT22;70422;44.692;37.768;2023-06-14T01:10:56;31.07;46.70
75799;DHT22;70422;44.692;37.768;2023-06-14T01:12:10;31.07;46.68
75799;DHT22;70422;44.692;37.768;2023-06-14T01:13:29;31.07;46.67
75799;DHT22;70422;44.692;37.768;2023-06-14T01:14:32;31.07;46.66
75799;DHT22;70422;44.692;37.768;2023-06-14T01:15:36;31.06;46.68
75799;DHT22;70422;44.692;37.768;2023-06-14T01:16:38;31.07;46.68
75799;DHT22;70422;44.692;37.768;2023-06-14T01:17:41;31.06;46.70
75799;DHT22;70422;44.692;37.768;2023-06-14T01:18:45;31.06;46.70
75799;DHT22;70422;44.692;37.768;2023-06-14T01:19:51;31.06;46.72
75799;DHT22;70422;44.692;37.768;2023-06-14T01:20:59;31.06;46.71
75799;DHT22;70422;44.692;37.768;2023-06-14T01:22:01;31.05;46.70
75799;DHT22;70422;44.692;37.768;2023-06-14T01:23:03;31.06;46.67
75799;DHT22;70422;44.692;37.768;2023-06-14T01:24:06;31.06;46.68
75799;DHT22;70422;44.692;37.768;2023-06-14T01:25:08;31.06;46.67
75799;DHT22;70422;44.692;37.768;2023-06-14T01:26:10;31.05;46.67
75799;DHT22;70422;44.692;37.768;2023-06-14T01:27:15;31.07;46.67
75799;DHT22;70422;44.692;37.768;2023-06-14T01:28:20;31.07;46.67
75799;DHT22;70422;44.692;37.768;2023-06-14T01:29:23;31.07;46.68
75799;DHT22;70422;44.692;37.768;2023-06-14T01:30:29;31.07;46.65
75799;DHT22;70422;44.692;37.768;2023-06-14T01:31:32;31.06;46.65
75799;DHT22;70422;44.692;37.768;2023-06-14T01:32:42;31.05;46.63
75799;DHT22;70422;44.692;37.768;2023-06-14T01:33:45;31.07;46.63
75799;DHT22;70422;44.692;37.768;2023-06-14T01:34:47;31.08;46.62
75799;DHT22;70422;44.692;37.768;2023-06-14T01:35:52;31.08;46.64
75799;DHT22;70422;44.692;37.768;2023-06-14T01:36:54;31.07;46.64
75799;DHT22;70422;44.692;37.768;2023-06-14T01:37:57;31.08;46.74
75799;DHT22;70422;44.692;37.768;2023-06-14T01:39:00;31.08;46.67
75799;DHT22;70422;44.692;37.768;2023-06-14T01:40:07;31.07;46.64
75799;DHT22;70422;44.692;37.768;2023-06-14T01:41:11;31.08;46.61
75799;DHT22;70422;44.692;37.768;2023-06-14T01:42:13;31.08;46.61
75799;DHT22;70422;44.692;37.768;2023-06-14T01:43:17;31.08;46.60
75799;DHT22;70422;44.692;37.768;2023-06-14T01:44:20;31.08;46.63
75799;DHT22;70422;44.692;37.768;2023-06-14T01:45:22;31.08;46.63
75799;DHT22;70422;44.692;37.768;2023-06-14T01:46:25;31.08;46.64
75799;DHT22;70422;44.692;37.768;2023-06-14T01:47:31;31.07;46.65
75799;DHT22;70422;44.692;37.768;2023-06-14T01:48:33;31.10;46.63
75799;DHT22;70422;44.692;37.768;2023-06-14T01:49:35;31.10;46.62
75799;DHT22;70422;44.692;37.768;2023-06-14T01:50:37;31.08;46.60
75799;DHT22;70422;44.692;37.768;2023-06-14T01:51:39;31.08;46.64
75799;DHT22;70422;44.692;37.768;2023-06-14T01:52:42;31.09;46.64
75799;DHT22;70422;44.692;37.768;2023-06-14T01:53:45;31.09;46.60
75799;DHT22;70422;44.692;37.768;2023-06-14T01:54:48;31.09;46.59
75799;DHT22;70422;44.692;37.768;2023-06-14T01:55:51;31.09;46.60
75799;DHT22;70422;44.692;37.768;2023-06-14T01:56:55;31.09;46.60
75799;DHT22;70422;44.692;37.768;2023-06-14T01:57:57;31.10;46.60
75799;DHT22;70422;44.692;37.768;2023-06-14T01:59:01;31.08;46.60
75799;DHT22;70422;44.692;37.768;2023-06-14T02:00:06;31.09;46.60
75799;DHT22;70422;44.692;37.768;2023-06-14T02:01:16;31.10;46.60
75799;DHT22;70422;44.692;37.768;2023-06-14T02:02:20;31.10;46.61
75799;DHT22;70422;44.692;37.768;2023-06-14T02:03:22;31.09;46.63
75799;DHT22;70422;44.692;37.768;2023-06-14T02:04:24;31.10;46.63
75799;DHT22;70422;44.692;37.768;2023-06-14T02:05:26;31.11;46.62
75799;DHT22;70422;44.692;37.768;2023-06-14T02:06:30;31.10;46.67
75799;DHT22;70422;44.692;37.768;2023-06-14T02:07:31;31.10;46.64
75799;DHT22;70422;44.692;37.768;2023-06-14T02:08:33;31.10;46.61
75799;DHT22;70422;44.692;37.768;2023-06-14T02:09:35;31.11;46.60
75799;DHT22;70422;44.692;37.768;2023-06-14T02:10:37;31.10;46.58
75799;DHT22;70422;44.692;37.768;2023-06-14T02:11:39;31.10;46.57
75799;DHT22;70422;44.692;37.768;2023-06-14T02:12:41;31.10;46.57
75799;DHT22;70422;44.692;37.768;2023-06-14T02:13:44;31.10;46.56
75799;DHT22;70422;44.692;37.768;2023-06-14T02:14:46;31.11;46.65
75799;DHT22;70422;44.692;37.768;2023-06-14T02:15:47;31.11;46.68
75799;DHT22;70422;44.692;37.768;2023-06-14T02:16:53;31.09;46.70
75799;DHT22;70422;44.692;37.768;2023-06-14T02:17:54;31.09;46.72
75799;DHT22;70422;44.692;37.768;2023-06-14T02:18:56;31.10;46.73
75799;DHT22;70422;44.692;37.768;2023-06-14T02:19:58;31.09;46.69
75799;DHT22;70422;44.692;37.768;2023-06-14T02:21:01;31.08;46.76
75799;DHT22;70422;44.692;37.768;2023-06-14T02:22:03;31.09;46.70
75799;DHT22;70422;44.692;37.768;2023-06-14T02:23:05;31.08;46.72
75799;DHT22;70422;44.692;37.768;2023-06-14T02:24:09;31.10;46.73
75799;DHT22;70422;44.692;37.768;2023-06-14T02:25:11;31.09;46.70
75799;DHT22;70422;44.692;37.768;2023-06-14T02:26:15;31.10;46.72
75799;DHT22;70422;44.692;37.768;2023-06-14T02:27:18;31.09;46.71
75799;DHT22;70422;44.692;37.768;2023-06-14T02:28:20;31.09;46.70
75799;DHT22;70422;44.692;37.768;2023-06-14T02:29:22;31.08;46.68
75799;DHT22;70422;44.692;37.768;2023-06-14T02:30:23;31.08;46.70
75799;DHT22;70422;44.692;37.768;2023-06-14T02:31:25;31.08;46.69
75799;DHT22;70422;44.692;37.768;2023-06-14T02:32:27;31.09;46.69
75799;DHT22;70422;44.692;37.768;2023-06-14T02:33:29;31.10;46.69
75799;DHT22;70422;44.692;37.768;2023-06-14T02:34:30;31.10;46.73
75799;DHT22;70422;44.692;37.768;2023-06-14T02:35:32;31.11;46.73
75799;DHT22;70422;44.692;37.768;2023-06-14T02:36:34;31.11;46.75
75799;DHT22;70422;44.692;37.768;2023-06-14T02:37:42;31.11;46.73
75799;DHT22;70422;44.692;37.768;2023-06-14T02:38:44;31.11;46.73
75799;DHT22;70422;44.692;37.768;2023-06-14T02:39:47;31.10;46.70
75799;DHT22;70422;44.692;37.768;2023-06-14T02:40:49;31.11;46.68
75799;DHT22;70422;44.692;37.768;2023-06-14T02:41:51;31.11;46.66
75799;DHT22;70422;44.692;37.768;2023-06-14T02:42:53;31.11;46.67
75799;DHT22;70422;44.692;37.768;2023-06-14T02:43:54;31.11;46.61
75799;DHT22;70422;44.692;37.768;2023-06-14T02:44:57;31.11;46.61
75799;DHT22;70422;44.692;37.768;2023-06-14T02:45:59;31.12;46.60
75799;DHT22;70422;44.692;37.768;2023-06-14T02:47:01;31.12;46.58
75799;DHT22;70422;44.692;37.768;2023-06-14T02:48:03;31.12;46.58
75799;DHT22;70422;44.692;37.768;2023-06-14T02:49:04;31.12;46.56
75799;DHT22;70422;44.692;37.768;2023-06-14T02:50:07;31.12;46.57
75799;DHT22;70422;44.692;37.768;2023-06-14T02:51:09;31.13;46.54
75799;DHT22;70422;44.692;37.768;2023-06-14T02:52:11;31.13;46.55
75799;DHT22;70422;44.692;37.768;2023-06-14T02:53:12;31.13;46.52
75799;DHT22;70422;44.692;37.768;2023-06-14T02:54:14;31.14;46.56
75799;DHT22;70422;44.692;37.768;2023-06-14T02:55:16;31.14;46.56
75799;DHT22;70422;44.692;37.768;2023-06-14T02:56:18;31.13;46.55
75799;DHT22;70422;44.692;37.768;2023-06-14T02:57:22;31.14;46.54
75799;DHT22;70422;44.692;37.768;2023-06-14T02:58:24;31.15;46.53
75799;DHT22;70422;44.692;37.768;2023-06-14T02:59:26;31.14;46.53
75799;DHT22;70422;44.692;37.768;2023-06-14T03:00:30;31.13;46.55
75799;DHT22;70422;44.692;37.768;2023-06-14T03:01:32;31.15;46.57
75799;DHT22;70422;44.692;37.768;2023-06-14T03:02:40;31.15;46.56
75799;DHT22;70422;44.692;37.768;2023-06-14T03:03:44;31.15;46.54
75799;DHT22;70422;44.692;37.768;2023-06-14T03:04:46;31.16;46.55
75799;DHT22;70422;44.692;37.768;2023-06-14T03:05:50;31.16;46.59
75799;DHT22;70422;44.692;37.768;2023-06-14T03:06:56;31.18;46.56
75799;DHT22;70422;44.692;37.768;2023-06-14T03:07:58;31.16;46.60
75799;DHT22;70422;44.692;37.768;2023-06-14T03:09:02;31.18;46.58
75799;DHT22;70422;44.692;37.768;2023-06-14T03:10:09;31.19;46.56
75799;DHT22;70422;44.692;37.768;2023-06-14T03:11:12;31.19;46.56
75799;DHT22;70422;44.692;37.768;2023-06-14T03:12:14;31.20;46.55
75799;DHT22;70422;44.692;37.768;2023-06-14T03:13:17;31.19;46.54
75799;DHT22;70422;44.692;37.768;2023-06-14T03:14:22;31.20;46.53
75799;DHT22;70422;44.692;37.768;2023-06-14T03:15:24;31.20;46.55
75799;DHT22;70422;44.692;37.768;2023-06-14T03:16:26;31.21;46.52
75799;DHT22;70422;44.692;37.768;2023-06-14T03:17:31;31.23;46.48
75799;DHT22;70422;44.692;37.768;2023-06-14T03:18:36;31.23;46.51
75799;DHT22;70422;44.692;37.768;2023-06-14T03:19:40;31.23;46.49
75799;DHT22;70422;44.692;37.768;2023-06-14T03:20:43;31.24;46.48
75799;DHT22;70422;44.692;37.768;2023-06-14T03:21:47;31.23;46.51
75799;DHT22;70422;44.692;37.768;2023-06-14T03:22:49;31.23;46.49
75799;DHT22;70422;44.692;37.768;2023-06-14T03:23:51;31.24;46.54
75799;DHT22;70422;44.692;37.768;2023-06-14T03:24:54;31.25;46.52
75799;DHT22;70422;44.692;37.768;2023-06-14T03:25:56;31.25;46.52
75799;DHT22;70422;44.692;37.768;2023-06-14T03:26:58;31.25;46.54
75799;DHT22;70422;44.692;37.768;2023-06-14T03:28:02;31.26;46.52
75799;DHT22;70422;44.692;37.768;2023-06-14T03:29:05;31.27;46.56
75799;DHT22;70422;44.692;37.768;2023-06-14T03:30:07;31.27;46.57
75799;DHT22;70422;44.692;37.768;2023-06-14T03:31:10;31.27;46.56
75799;DHT22;70422;44.692;37.768;2023-06-14T03:32:12;31.27;46.54
75799;DHT22;70422;44.692;37.768;2023-06-14T03:33:17;31.26;46.57
75799;DHT22;70422;44.692;37.768;2023-06-14T03:34:18;31.28;46.56
75799;DHT22;70422;44.692;37.768;2023-06-14T03:35:20;31.28;46.52
75799;DHT22;70422;44.692;37.768;2023-06-14T03:36:24;31.29;46.54
75799;DHT22;70422;44.692;37.768;2023-06-14T03:37:27;31.28;46.53
75799;DHT22;70422;44.692;37.768;2023-06-14T03:38:29;31.29;46.53
75799;DHT22;70422;44.692;37.768;2023-06-14T03:39:30;31.29;46.54
75799;DHT22;70422;44.692;37.768;2023-06-14T03:40:32;31.31;46.52
75799;DHT22;70422;44.692;37.768;2023-06-14T03:41:37;31.31;46.56
75799;DHT22;70422;44.692;37.768;2023-06-14T03:42:40;31.31;46.55
75799;DHT22;70422;44.692;37.768;2023-06-14T03:43:41;31.30;46.54
75799;DHT22;70422;44.692;37.768;2023-06-14T03:44:44;31.33;46.52
75799;DHT22;70422;44.692;37.768;2023-06-14T03:45:45;31.34;46.51
75799;DHT22;70422;44.692;37.768;2023-06-14T03:46:47;31.33;46.54
75799;DHT22;70422;44.692;37.768;2023-06-14T03:47:49;31.35;46.54
75799;DHT22;70422;44.692;37.768;2023-06-14T03:48:51;31.34;46.58
75799;DHT22;70422;44.692;37.768;2023-06-14T03:49:53;31.35;46.54
75799;DHT22;70422;44.692;37.768;2023-06-14T03:50:55;31.35;46.55
75799;DHT22;70422;44.692;37.768;2023-06-14T03:51:58;31.35;46.51
75799;DHT22;70422;44.692;37.768;2023-06-14T03:53:01;31.36;46.54
75799;DHT22;70422;44.692;37.768;2023-06-14T03:54:03;31.35;46.57
75799;DHT22;70422;44.692;37.768;2023-06-14T03:55:06;31.37;46.54
75799;DHT22;70422;44.692;37.768;2023-06-14T03:56:08;31.37;46.57
75799;DHT22;70422;44.692;37.768;2023-06-14T03:57:16;31.37;46.54
75799;DHT22;70422;44.692;37.768;2023-06-14T03:58:19;31.38;46.58
75799;DHT22;70422;44.692;37.768;2023-06-14T03:59:21;31.39;46.56
75799;DHT22;70422;44.692;37.768;2023-06-14T04:00:23;31.39;46.57
75799;DHT22;70422;44.692;37.768;2023-06-14T04:01:25;31.39;46.56
75799;DHT22;70422;44.692;37.768;2023-06-14T04:02:33;31.40;46.55
75799;DHT22;70422;44.692;37.768;2023-06-14T04:03:35;31.40;46.59
75799;DHT22;70422;44.692;37.768;2023-06-14T04:04:37;31.40;46.60
75799;DHT22;70422;44.692;37.768;2023-06-14T04:05:41;31.42;46.57
75799;DHT22;70422;44.692;37.768;2023-06-14T04:06:44;31.41;46.60
75799;DHT22;70422;44.692;37.768;2023-06-14T04:07:50;31.41;46.60
75799;DHT22;70422;44.692;37.768;2023-06-14T04:08:52;31.41;46.62
75799;DHT22;70422;44.692;37.768;2023-06-14T04:09:54;31.42;46.64
75799;DHT22;70422;44.692;37.768;2023-06-14T04:10:56;31.42;46.64
75799;DHT22;70422;44.692;37.768;2023-06-14T04:11:57;31.42;46.67
75799;DHT22;70422;44.692;37.768;2023-06-14T04:12:59;31.44;46.69
75799;DHT22;70422;44.692;37.768;2023-06-14T04:14:02;31.43;46.73
75799;DHT22;70422;44.692;37.768;2023-06-14T04:15:04;31.44;46.76
75799;DHT22;70422;44.692;37.768;2023-06-14T04:16:08;31.44;46.73
75799;DHT22;70422;44.692;37.768;2023-06-14T04:17:11;31.43;46.71
75799;DHT22;70422;44.692;37.768;2023-06-14T04:18:14;31.43;46.75
75799;DHT22;70422;44.692;37.768;2023-06-14T04:19:16;31.44;46.79
75799;DHT22;70422;44.692;37.768;2023-06-14T04:20:17;31.45;46.82
75799;DHT22;70422;44.692;37.768;2023-06-14T04:21:19;31.45;46.84
75799;DHT22;70422;44.692;37.768;2023-06-14T04:22:21;31.45;46.95
75799;DHT22;70422;44.692;37.768;2023-06-14T04:23:23;31.44;46.96
75799;DHT22;70422;44.692;37.768;2023-06-14T04:24:25;31.45;47.04
75799;DHT22;70422;44.692;37.768;2023-06-14T04:25:33;31.44;47.12
75799;DHT22;70422;44.692;37.768;2023-06-14T04:26:35;31.43;47.14
75799;DHT22;70422;44.692;37.768;2023-06-14T04:27:38;31.44;47.20
75799;DHT22;70422;44.692;37.768;2023-06-14T04:28:40;31.44;47.30
75799;DHT22;70422;44.692;37.768;2023-06-14T04:29:44;31.43;47.34
75799;DHT22;70422;44.692;37.768;2023-06-14T04:30:49;31.44;47.40
75799;DHT22;70422;44.692;37.768;2023-06-14T04:31:54;31.44;47.47
75799;DHT22;70422;44.692;37.768;2023-06-14T04:32:56;31.45;47.49
75799;DHT22;70422;44.692;37.768;2023-06-14T04:33:58;31.45;47.49
75799;DHT22;70422;44.692;37.768;2023-06-14T04:35:00;31.44;47.49
75799;DHT22;70422;44.692;37.768;2023-06-14T04:36:06;31.45;47.50
75799;DHT22;70422;44.692;37.768;2023-06-14T04:37:09;31.44;47.49
75799;DHT22;70422;44.692;37.768;2023-06-14T04:38:16;31.45;47.49
75799;DHT22;70422;44.692;37.768;2023-06-14T04:39:18;31.45;47.51
75799;DHT22;70422;44.692;37.768;2023-06-14T04:40:20;31.46;47.48
75799;DHT22;70422;44.692;37.768;2023-06-14T04:41:22;31.45;47.47
75799;DHT22;70422;44.692;37.768;2023-06-14T04:42:26;31.46;47.50
75799;DHT22;70422;44.692;37.768;2023-06-14T04:43:34;31.46;47.50
75799;DHT22;70422;44.692;37.768;2023-06-14T04:44:41;31.46;47.48
75799;DHT22;70422;44.692;37.768;2023-06-14T04:45:43;31.46;47.51
75799;DHT22;70422;44.692;37.768;2023-06-14T04:46:48;31.46;47.52
75799;DHT22;70422;44.692;37.768;2023-06-14T04:47:55;31.46;47.52
75799;DHT22;70422;44.692;37.768;2023-06-14T04:48:58;31.46;47.59
75799;DHT22;70422;44.692;37.768;2023-06-14T04:50:04;31.45;47.63
75799;DHT22;70422;44.692;37.768;2023-06-14T04:51:07;31.46;47.73
75799;DHT22;70422;44.692;37.768;2023-06-14T04:52:09;31.45;47.73
75799;DHT22;70422;44.692;37.768;2023-06-14T04:53:16;31.45;47.74
75799;DHT22;70422;44.692;37.768;2023-06-14T04:54:18;31.48;47.79
75799;DHT22;70422;44.692;37.768;2023-06-14T04:55:21;31.46;47.82
75799;DHT22;70422;44.692;37.768;2023-06-14T04:56:23;31.45;47.84
75799;DHT22;70422;44.692;37.768;2023-06-14T04:57:26;31.46;47.87
75799;DHT22;70422;44.692;37.768;2023-06-14T04:58:31;31.46;47.85
75799;DHT22;70422;44.692;37.768;2023-06-14T04:59:34;31.46;47.86
75799;DHT22;70422;44.692;37.768;2023-06-14T05:00:37;31.46;47.92
75799;DHT22;70422;44.692;37.768;2023-06-14T05:01:38;31.44;47.95
75799;DHT22;70422;44.692;37.768;2023-06-14T05:02:40;31.46;47.97
75799;DHT22;70422;44.692;37.768;2023-06-14T05:03:42;31.46;47.99
75799;DHT22;70422;44.692;37.768;2023-06-14T05:04:46;31.45;48.00
75799;DHT22;70422;44.692;37.768;2023-06-14T05:05:49;31.48;48.00
75799;DHT22;70422;44.692;37.768;2023-06-14T05:06:52;31.45;48.03
75799;DHT22;70422;44.692;37.768;2023-06-14T05:07:57;31.46;48.12
75799;DHT22;70422;44.692;37.768;2023-06-14T05:08:59;31.46;47.43
75799;DHT22;70422;44.692;37.768;2023-06-14T05:10:00;31.44;46.04
75799;DHT22;70422;44.692;37.768;2023-06-14T05:11:02;31.40;45.23
75799;DHT22;70422;44.692;37.768;2023-06-14T05:13:24;31.29;43.74
75799;DHT22;70422;44.692;37.768;2023-06-14T05:14:30;31.23;42.96
75799;DHT22;70422;44.692;37.768;2023-06-14T05:15:33;31.18;42.43
75799;DHT22;70422;44.692;37.768;2023-06-14T05:16:34;31.12;41.85
75799;DHT22;70422;44.692;37.768;2023-06-14T05:17:36;31.07;41.16
75799;DHT22;70422;44.692;37.768;2023-06-14T05:18:38;31.01;40.56
75799;DHT22;70422;44.692;37.768;2023-06-14T05:19:41;30.95;39.97
75799;DHT22;70422;44.692;37.768;2023-06-14T05:20:43;30.87;39.61
75799;DHT22;70422;44.692;37.768;2023-06-14T05:21:44;30.81;39.19
75799;DHT22;70422;44.692;37.768;2023-06-14T05:22:46;30.75;38.92
75799;DHT22;70422;44.692;37.768;2023-06-14T05:23:49;30.69;38.46
75799;DHT22;70422;44.692;37.768;2023-06-14T05:24:52;30.63;37.95
75799;DHT22;70422;44.692;37.768;2023-06-14T05:25:54;30.55;37.82
75799;DHT22;70422;44.692;37.768;2023-06-14T05:26:56;30.51;37.33
75799;DHT22;70422;44.692;37.768;2023-06-14T05:27:58;30.46;36.85
75799;DHT22;70422;44.692;37.768;2023-06-14T05:30:20;30.37;36.35
75799;DHT22;70422;44.692;37.768;2023-06-14T05:31:24;30.32;35.97
75799;DHT22;70422;44.692;37.768;2023-06-14T05:32:27;30.27;35.68
75799;DHT22;70422;44.692;37.768;2023-06-14T05:33:28;30.22;35.61
75799;DHT22;70422;44.692;37.768;2023-06-14T05:34:30;30.17;35.35
75799;DHT22;70422;44.692;37.768;2023-06-14T05:35:32;30.15;35.18
75799;DHT22;70422;44.692;37.768;2023-06-14T05:36:34;30.10;35.02
75799;DHT22;70422;44.692;37.768;2023-06-14T05:37:54;30.04;34.68
75799;DHT22;70422;44.692;37.768;2023-06-14T05:38:55;30.01;34.70
75799;DHT22;70422;44.692;37.768;2023-06-14T05:39:59;29.97;34.26
75799;DHT22;70422;44.692;37.768;2023-06-14T05:41:00;29.93;34.37
75799;DHT22;70422;44.692;37.768;2023-06-14T05:42:21;29.88;34.42
75799;DHT22;70422;44.692;37.768;2023-06-14T05:43:23;29.87;34.32
75799;DHT22;70422;44.692;37.768;2023-06-14T05:44:24;29.82;34.41
75799;DHT22;70422;44.692;37.768;2023-06-14T05:45:26;29.78;34.32
75799;DHT22;70422;44.692;37.768;2023-06-14T05:46:28;29.77;34.13
75799;DHT22;70422;44.692;37.768;2023-06-14T05:47:29;29.71;33.93
75799;DHT22;70422;44.692;37.768;2023-06-14T05:48:31;29.66;33.96
75799;DHT22;70422;44.692;37.768;2023-06-14T05:49:33;29.65;34.34
75799;DHT22;70422;44.692;37.768;2023-06-14T05:50:35;29.61;34.13
75799;DHT22;70422;44.692;37.768;2023-06-14T05:51:37;29.60;33.86
75799;DHT22;70422;44.692;37.768;2023-06-14T05:52:38;29.56;33.67
75799;DHT22;70422;44.692;37.768;2023-06-14T05:53:40;29.54;33.69
75799;DHT22;70422;44.692;37.768;2023-06-14T05:54:42;29.52;33.62
75799;DHT22;70422;44.692;37.768;2023-06-14T05:55:43;29.50;33.61
75799;DHT22;70422;44.692;37.768;2023-06-14T05:56:45;29.50;33.55
75799;DHT22;70422;44.692;37.768;2023-06-14T05:57:47;29.49;33.47
75799;DHT22;70422;44.692;37.768;2023-06-14T05:58:49;29.46;33.53
75799;DHT22;70422;44.692;37.768;2023-06-14T05:59:52;29.45;33.64
75799;DHT22;70422;44.692;37.768;2023-06-14T06:00:53;29.44;33.67
75799;DHT22;70422;44.692;37.768;2023-06-14T06:01:55;29.43;33.70
75799;DHT22;70422;44.692;37.768;2023-06-14T06:02:57;29.41;34.41
75799;DHT22;70422;44.692;37.768;2023-06-14T06:03:59;29.43;36.48
75799;DHT22;70422;44.692;37.768;2023-06-14T06:05:01;29.43;36.88
75799;DHT22;70422;44.692;37.768;2023-06-14T06:06:03;29.41;36.06
75799;DHT22;70422;44.692;37.768;2023-06-14T06:07:05;29.38;35.71
75799;DHT22;70422;44.692;37.768;2023-06-14T06:08:07;29.36;35.37
75799;DHT22;70422;44.692;37.768;2023-06-14T06:09:09;29.32;35.10
75799;DHT22;70422;44.692;37.768;2023-06-14T06:10:10;29.30;34.91
75799;DHT22;70422;44.692;37.768;2023-06-14T06:11:13;29.28;34.70
75799;DHT22;70422;44.692;37.768;2023-06-14T06:12:14;29.24;34.36
75799;DHT22;70422;44.692;37.768;2023-06-14T06:13:16;29.21;34.37
75799;DHT22;70422;44.692;37.768;2023-06-14T06:14:18;29.19;34.25
75799;DHT22;70422;44.692;37.768;2023-06-14T06:15:20;29.16;33.96
75799;DHT22;70422;44.692;37.768;2023-06-14T06:16:22;29.13;33.73
75799;DHT22;70422;44.692;37.768;2023-06-14T06:17:25;29.09;33.61
75799;DHT22;70422;44.692;37.768;2023-06-14T06:18:26;29.07;33.44
75799;DHT22;70422;44.692;37.768;2023-06-14T06:19:28;29.04;33.29
75799;DHT22;70422;44.692;37.768;2023-06-14T06:20:30;29.03;33.33
75799;DHT22;70422;44.692;37.768;2023-06-14T06:21:33;28.99;33.25
75799;DHT22;70422;44.692;37.768;2023-06-14T06:22:35;28.98;33.07
75799;DHT22;70422;44.692;37.768;2023-06-14T06:23:36;28.95;33.44
75799;DHT22;70422;44.692;37.768;2023-06-14T06:24:38;28.95;33.60
75799;DHT22;70422;44.692;37.768;2023-06-14T06:25:40;28.93;33.21
75799;DHT22;70422;44.692;37.768;2023-06-14T06:26:42;28.92;33.28
75799;DHT22;70422;44.692;37.768;2023-06-14T06:27:44;28.90;33.16
75799;DHT22;70422;44.692;37.768;2023-06-14T06:29:04;28.89;32.95
75799;DHT22;70422;44.692;37.768;2023-06-14T06:31:27;28.85;32.54
75799;DHT22;70422;44.692;37.768;2023-06-14T06:32:31;28.85;32.40
75799;DHT22;70422;44.692;37.768;2023-06-14T06:34:52;28.79;33.02
75799;DHT22;70422;44.692;37.768;2023-06-14T06:35:54;28.79;32.90
75799;DHT22;70422;44.692;37.768;2023-06-14T06:37:14;28.79;33.18
75799;DHT22;70422;44.692;37.768;2023-06-14T06:38:16;28.78;33.42